Time;durP1;ratioP1;P1;durP2;ratioP2;P2;SDS_P1;SDS_P2;PMS_P1;PMS_P2;Temp;Humidity;BMP_temperature;BMP_pressure;BME280_temperature;BME280_humidity;BME280_pressure;Samples;Min_cycle;Max_cycle;Signal;HPM_P1;HPM_P2
2022/07/30 00:02:15;;;;;;;11.15;4.30;;;17.10;99.90;;;;;;5020049;28;212976;-65
2022/07/30 00:04:42;;;;;;;14.68;4.47;;;17.10;99.90;;;;;;5027865;28;118828;-66
2022/07/30 00:07:08;;;;;;;14.07;4.38;;;17.10;99.90;;;;;;5007190;28;205924;-65
2022/07/30 00:09:34;;;;;;;11.18;4.18;;;17.00;99.90;;;;;;5041812;28;87825;-66
2022/07/30 00:12:00;;;;;;;11.30;4.47;;;17.00;99.90;;;;;;5007252;28;208993;-66
2022/07/30 00:14:26;;;;;;;11.73;4.57;;;17.00;99.90;;;;;;5022279;28;83488;-66
2022/07/30 00:16:53;;;;;;;13.52;4.55;;;16.90;99.90;;;;;;5003855;28;208522;-67
2022/07/30 00:19:19;;;;;;;11.95;4.97;;;16.90;99.90;;;;;;5035836;28;236814;-65
2022/07/30 00:21:45;;;;;;;12.55;4.80;;;16.90;99.90;;;;;;5039282;28;224156;-65
2022/07/30 00:24:12;;;;;;;11.88;4.80;;;16.80;99.90;;;;;;5058839;28;64109;-65
2022/07/30 00:26:38;;;;;;;11.75;4.90;;;16.70;99.90;;;;;;5019680;28;212042;-64
2022/07/30 00:29:05;;;;;;;12.88;4.97;;;16.60;99.90;;;;;;5063180;28;273582;-65
2022/07/30 00:31:31;;;;;;;16.10;5.10;;;16.50;99.90;;;;;;5004966;28;206665;-64
2022/07/30 00:33:57;;;;;;;12.38;4.97;;;16.40;99.90;;;;;;5064512;28;255304;-65
2022/07/30 00:36:24;;;;;;;10.40;5.40;;;16.30;99.90;;;;;;5023836;28;208923;-65
2022/07/30 00:38:50;;;;;;;11.32;5.70;;;16.30;99.90;;;;;;5023318;28;22957;-65
2022/07/30 00:41:16;;;;;;;12.50;5.63;;;16.30;99.90;;;;;;5013571;28;219135;-66
2022/07/30 00:43:43;;;;;;;11.55;5.13;;;16.30;99.90;;;;;;5054944;28;153502;-65
2022/07/30 00:46:10;;;;;;;14.95;5.43;;;16.20;99.90;;;;;;5029430;28;174358;-65
2022/07/30 00:48:36;;;;;;;11.93;5.10;;;16.20;99.90;;;;;;5051027;28;254261;-65
2022/07/30 00:51:02;;;;;;;13.18;5.22;;;16.20;99.90;;;;;;5020064;28;210485;-65
2022/07/30 00:53:28;;;;;;;15.57;6.35;;;16.20;99.90;;;;;;5032924;28;264057;-64
2022/07/30 00:55:55;;;;;;;12.57;5.72;;;16.20;99.90;;;;;;5006066;28;206805;-64
2022/07/30 00:58:21;;;;;;;17.60;5.37;;;16.20;99.90;;;;;;5032497;28;261009;-65
2022/07/30 01:00:47;;;;;;;11.23;5.20;;;16.10;99.90;;;;;;5001286;28;209691;-65
2022/07/30 01:03:13;;;;;;;11.77;5.00;;;16.10;99.90;;;;;;5067023;28;20056;-65
2022/07/30 01:05:39;;;;;;;13.20;5.10;;;16.10;99.90;;;;;;4976485;28;229510;-65
2022/07/30 01:08:05;;;;;;;11.63;5.32;;;16.10;99.90;;;;;;5049980;28;20044;-65
2022/07/30 01:10:31;;;;;;;12.25;4.85;;;16.00;99.90;;;;;;5009599;28;211447;-65
2022/07/30 01:12:58;;;;;;;10.20;5.05;;;16.00;99.90;;;;;;5032942;28;207706;-65
2022/07/30 01:15:25;;;;;;;10.93;5.32;;;16.00;99.90;;;;;;5033464;28;233896;-65
2022/07/30 01:17:53;;;;;;;11.20;5.45;;;16.00;99.90;;;;;;5013717;28;207089;-65
2022/07/30 01:20:52;;;;;;;11.27;4.95;;;15.90;99.90;;;;;;5034891;28;244870;-64
2022/07/30 01:23:37;;;;;;;12.32;5.68;;;15.90;99.90;;;;;;4978682;28;261250;-66
2022/07/30 01:26:06;;;;;;;13.95;5.10;;;15.90;99.90;;;;;;5018112;28;218296;-64
2022/07/30 01:28:36;;;;;;;12.32;4.80;;;15.90;99.90;;;;;;5049644;28;270066;-65
2022/07/30 01:31:04;;;;;;;11.70;5.15;;;15.80;99.90;;;;;;5015538;28;135911;-64
2022/07/30 01:33:33;;;;;;;11.40;4.63;;;15.80;99.90;;;;;;5015552;28;265732;-66
2022/07/30 01:36:01;;;;;;;11.45;4.50;;;15.80;99.90;;;;;;5004723;28;206965;-66
2022/07/30 01:38:30;;;;;;;10.63;4.30;;;15.80;99.90;;;;;;5032005;28;275308;-65
2022/07/30 01:40:57;;;;;;;9.65;4.10;;;15.70;99.90;;;;;;5008851;28;213600;-63
2022/07/30 01:43:25;;;;;;;10.18;4.78;;;15.70;99.90;;;;;;5047909;28;261739;-65
2022/07/30 01:45:52;;;;;;;11.93;4.55;;;15.70;99.90;;;;;;5002236;28;208747;-65
2022/07/30 01:48:24;;;;;;;11.88;4.97;;;15.60;99.90;;;;;;5034673;28;276462;-65
2022/07/30 01:50:53;;;;;;;11.85;5.50;;;15.60;99.90;;;;;;5025317;28;213996;-65
2022/07/30 01:53:24;;;;;;;10.40;5.30;;;15.60;99.90;;;;;;5031334;28;272053;-65
2022/07/30 01:55:51;;;;;;;10.98;4.72;;;15.50;99.90;;;;;;5004685;28;209619;-64
2022/07/30 01:58:21;;;;;;;10.35;4.82;;;15.50;99.90;;;;;;5030970;28;251855;-65
2022/07/30 02:00:49;;;;;;;11.63;4.90;;;15.40;99.90;;;;;;5029640;28;209886;-65
2022/07/30 02:03:16;;;;;;;11.55;6.30;;;15.40;99.90;;;;;;5038384;28;277013;-64
2022/07/30 02:05:49;;;;;;;10.97;5.93;;;15.30;99.90;;;;;;5009509;28;210623;-65
2022/07/30 02:08:23;;;;;;;12.45;5.88;;;15.30;99.90;;;;;;5042841;28;267856;-64
2022/07/30 02:10:56;;;;;;;12.90;5.32;;;15.20;99.90;;;;;;5007571;28;221420;-65
2022/07/30 02:13:27;;;;;;;11.55;5.53;;;15.20;99.90;;;;;;5038736;28;250687;-65
2022/07/30 02:16:12;;;;;;;11.90;5.68;;;15.20;99.90;;;;;;4994009;28;206165;-65
2022/07/30 02:18:50;;;;;;;12.75;5.60;;;15.20;99.90;;;;;;5070579;28;46680;-64
2022/07/30 02:21:19;;;;;;;11.75;5.60;;;15.20;99.90;;;;;;5037092;28;158669;-66
2022/07/30 02:23:48;;;;;;;11.55;5.80;;;15.20;99.90;;;;;;5048113;28;58414;-65
2022/07/30 02:26:19;;;;;;;16.05;6.53;;;15.20;99.90;;;;;;5031065;28;203612;-65
2022/07/30 02:28:50;;;;;;;12.25;6.25;;;15.10;99.90;;;;;;5063175;28;82733;-65
2022/07/30 02:31:20;;;;;;;11.40;5.90;;;15.10;99.90;;;;;;5010672;28;215190;-64
2022/07/30 02:33:49;;;;;;;11.32;6.03;;;15.10;99.90;;;;;;5045427;28;107406;-64
2022/07/30 02:36:17;;;;;;;10.77;5.72;;;15.10;99.90;;;;;;5040388;28;209288;-64
2022/07/30 02:38:45;;;;;;;10.98;5.60;;;15.10;99.90;;;;;;5047193;28;77708;-65
2022/07/30 02:41:12;;;;;;;13.60;5.88;;;15.00;99.90;;;;;;5014579;28;207649;-65
2022/07/30 02:43:39;;;;;;;12.73;6.60;;;15.00;99.90;;;;;;5056576;28;264331;-65
2022/07/30 02:46:08;;;;;;;12.48;6.88;;;14.90;99.90;;;;;;5033247;28;210349;-65
2022/07/30 02:48:37;;;;;;;12.82;7.13;;;14.90;99.90;;;;;;5039139;28;259152;-66
2022/07/30 02:51:05;;;;;;;12.45;7.97;;;14.80;99.90;;;;;;5029056;28;206252;-65
2022/07/30 02:53:32;;;;;;;14.38;7.57;;;14.80;99.90;;;;;;5044515;28;269124;-65
2022/07/30 02:56:00;;;;;;;14.88;8.00;;;14.70;99.90;;;;;;5008936;28;211493;-65
2022/07/30 02:58:28;;;;;;;14.98;8.55;;;14.70;99.90;;;;;;5054801;28;274374;-65
2022/07/30 03:00:55;;;;;;;14.00;7.55;;;14.60;99.90;;;;;;5014093;28;209637;-65
2022/07/30 03:03:27;;;;;;;13.90;7.95;;;14.60;99.90;;;;;;5038145;28;279015;-65
2022/07/30 03:05:55;;;;;;;16.90;8.43;;;14.60;99.90;;;;;;5005415;28;210383;-65
2022/07/30 03:08:21;;;;;;;12.32;7.55;;;14.60;99.90;;;;;;5024910;28;253586;-65
2022/07/30 03:10:48;;;;;;;14.00;7.82;;;14.50;99.90;;;;;;5029667;28;215178;-65
2022/07/30 03:13:16;;;;;;;14.38;8.07;;;14.50;99.90;;;;;;5042873;28;275747;-64
2022/07/30 03:15:49;;;;;;;13.85;7.07;;;14.50;99.90;;;;;;5013129;28;214719;-65
2022/07/30 03:18:17;;;;;;;13.95;9.20;;;14.40;99.90;;;;;;5037583;28;263212;-64
2022/07/30 03:20:46;;;;;;;13.63;7.82;;;14.40;99.90;;;;;;5003994;28;235554;-65
2022/07/30 03:23:18;;;;;;;14.30;8.43;;;14.40;99.90;;;;;;5052105;28;20045;-65
2022/07/30 03:25:53;;;;;;;15.97;8.90;;;14.40;99.90;;;;;;4976383;28;210364;-65
2022/07/30 03:28:21;;;;;;;18.60;10.23;;;14.40;99.90;;;;;;5033365;28;268090;-65
2022/07/30 03:30:47;;;;;;;15.95;8.82;;;14.40;99.90;;;;;;5026072;28;221738;-65
2022/07/30 03:33:14;;;;;;;14.82;8.57;;;14.40;99.90;;;;;;5051902;28;20064;-65
2022/07/30 03:35:42;;;;;;;16.25;9.60;;;14.30;99.90;;;;;;4981697;28;211925;-65
2022/07/30 03:38:13;;;;;;;15.73;10.02;;;14.30;99.90;;;;;;5051765;28;20052;-65
2022/07/30 03:40:41;;;;;;;15.90;10.00;;;14.30;99.90;;;;;;5021371;28;209477;-65
2022/07/30 03:43:11;;;;;;;19.25;11.27;;;14.30;99.90;;;;;;5051700;28;20402;-65
2022/07/30 03:45:41;;;;;;;16.95;11.23;;;14.30;99.90;;;;;;5001366;28;227319;-64
2022/07/30 03:48:09;;;;;;;18.40;11.00;;;14.30;99.90;;;;;;5051179;28;20051;-63
2022/07/30 03:50:36;;;;;;;29.65;11.50;;;14.30;99.90;;;;;;5002858;28;216303;-64
2022/07/30 03:53:04;;;;;;;30.27;11.38;;;14.20;99.90;;;;;;5050952;28;20043;-64
2022/07/30 03:55:31;;;;;;;23.70;11.15;;;14.10;99.90;;;;;;5024420;28;212821;-65
2022/07/30 03:57:59;;;;;;;21.98;11.25;;;14.10;99.90;;;;;;5034853;28;206496;-65
2022/07/30 04:00:26;;;;;;;14.65;10.77;;;14.10;99.90;;;;;;5057277;28;88262;-65
2022/07/30 04:02:52;;;;;;;18.45;11.38;;;14.10;99.90;;;;;;5013499;28;132300;-64
2022/07/30 04:05:18;;;;;;;15.02;11.15;;;14.10;99.90;;;;;;5023747;28;196539;-64
2022/07/30 04:07:45;;;;;;;22.65;12.98;;;14.10;99.90;;;;;;5024350;28;207056;-65
2022/07/30 04:10:12;;;;;;;21.70;11.18;;;14.10;99.90;;;;;;5052936;28;246958;-65
2022/07/30 04:12:38;;;;;;;21.40;11.23;;;14.00;99.90;;;;;;5020293;28;209453;-64
2022/07/30 04:15:05;;;;;;;17.50;11.02;;;14.00;99.90;;;;;;5020769;28;224529;-64
2022/07/30 04:17:40;;;;;;;15.02;11.68;;;13.90;99.90;;;;;;5005093;28;209731;-64
2022/07/30 04:20:22;;;;;;;22.23;10.77;;;13.90;99.90;;;;;;5040284;28;133468;-64
2022/07/30 04:22:50;;;;;;;19.55;10.30;;;14.00;99.90;;;;;;5001830;28;205429;-64
2022/07/30 04:25:17;;;;;;;16.88;10.15;;;13.90;99.90;;;;;;5033955;28;203516;-65
2022/07/30 04:27:43;;;;;;;15.80;10.23;;;13.80;99.90;;;;;;5027601;28;135254;-65
2022/07/30 04:30:10;;;;;;;25.73;9.85;;;13.80;99.90;;;;;;5058675;28;65137;-64
2022/07/30 04:32:36;;;;;;;72.05;10.63;;;13.80;99.90;;;;;;5012258;28;206087;-65
2022/07/30 04:35:03;;;;;;;93.32;10.70;;;13.90;99.90;;;;;;5057018;28;107335;-65
2022/07/30 04:37:29;;;;;;;43.05;9.65;;;13.90;99.90;;;;;;5005210;28;210470;-63
2022/07/30 04:39:59;;;;;;;56.10;10.10;;;13.90;99.90;;;;;;5040409;28;99367;-63
2022/07/30 04:42:26;;;;;;;39.78;9.00;;;14.00;99.90;;;;;;5011855;28;205380;-64
2022/07/30 04:44:54;;;;;;;25.48;8.98;;;14.00;99.90;;;;;;5052938;28;207919;-64
2022/07/30 04:47:22;;;;;;;21.20;8.88;;;14.00;99.90;;;;;;5009392;28;206557;-64
2022/07/30 04:49:49;;;;;;;24.42;9.68;;;14.00;99.90;;;;;;5057874;28;82477;-63
2022/07/30 04:52:17;;;;;;;17.02;9.45;;;14.00;99.90;;;;;;4992864;28;193264;-64
2022/07/30 04:54:49;;;;;;;13.45;9.85;;;14.00;99.90;;;;;;5037620;28;185922;-65
2022/07/30 04:57:16;;;;;;;16.92;9.52;;;14.00;99.90;;;;;;5008970;28;208950;-64
2022/07/30 04:59:43;;;;;;;27.50;8.50;;;14.00;99.90;;;;;;5040611;28;85978;-64
2022/07/30 05:02:10;;;;;;;43.67;8.90;;;14.00;99.90;;;;;;5005807;28;206660;-65
2022/07/30 05:04:37;;;;;;;54.40;9.07;;;14.10;99.90;;;;;;5030349;28;111103;-64
2022/07/30 05:07:05;;;;;;;12.98;7.95;;;14.20;99.90;;;;;;4995364;28;209608;-65
2022/07/30 05:09:32;;;;;;;27.15;7.90;;;14.20;99.90;;;;;;5054667;28;59780;-65
2022/07/30 05:11:58;;;;;;;24.13;7.63;;;14.30;99.90;;;;;;4993007;28;207476;-64
2022/07/30 05:14:26;;;;;;;18.13;7.55;;;14.30;99.90;;;;;;5035626;28;241681;-64
2022/07/30 05:16:53;;;;;;;31.08;8.20;;;14.40;99.90;;;;;;5040419;28;209556;-65
2022/07/30 05:19:20;;;;;;;18.02;7.07;;;14.50;99.90;;;;;;5058653;28;36427;-65
2022/07/30 05:21:46;;;;;;;21.33;7.30;;;14.60;99.90;;;;;;5014362;28;209492;-65
2022/07/30 05:24:13;;;;;;;9.65;6.85;;;14.70;99.90;;;;;;5034658;28;246849;-64
2022/07/30 05:26:40;;;;;;;14.18;7.60;;;14.70;99.90;;;;;;5006792;28;206502;-65
2022/07/30 05:29:06;;;;;;;11.80;6.80;;;14.80;99.90;;;;;;5042039;28;46596;-64
2022/07/30 05:31:32;;;;;;;12.48;7.28;;;14.80;99.90;;;;;;5008236;28;206450;-64
2022/07/30 05:33:58;;;;;;;13.63;7.68;;;14.90;99.90;;;;;;5032888;28;275765;-64
2022/07/30 05:36:25;;;;;;;20.83;6.85;;;15.00;99.90;;;;;;5006887;28;206134;-65
2022/07/30 05:38:51;;;;;;;11.10;6.72;;;15.10;99.90;;;;;;5034770;28;216627;-64
2022/07/30 05:41:17;;;;;;;15.45;7.03;;;15.20;99.90;;;;;;5001178;28;133460;-65
2022/07/30 05:43:43;;;;;;;28.02;7.57;;;15.30;99.90;;;;;;5020048;28;103549;-65
2022/07/30 05:46:09;;;;;;;29.23;7.78;;;15.40;99.90;;;;;;5010859;28;211550;-65
2022/07/30 05:48:35;;;;;;;41.72;7.57;;;15.40;99.90;;;;;;5033484;28;267045;-65
2022/07/30 05:51:02;;;;;;;16.20;6.97;;;15.40;99.90;;;;;;5023250;28;206216;-65
2022/07/30 05:53:29;;;;;;;40.53;7.90;;;15.50;99.90;;;;;;5032536;28;259466;-64
2022/07/30 05:55:55;;;;;;;47.05;8.27;;;15.50;99.90;;;;;;5009809;28;210151;-65
2022/07/30 05:58:21;;;;;;;45.53;8.73;;;15.60;99.90;;;;;;5031904;28;264761;-64
2022/07/30 06:00:48;;;;;;;92.53;8.70;;;15.60;99.90;;;;;;4999675;28;220752;-65
2022/07/30 06:03:14;;;;;;;15.23;8.20;;;15.60;99.90;;;;;;5084469;28;20049;-66
2022/07/30 06:05:40;;;;;;;24.20;7.50;;;15.70;99.90;;;;;;4991473;28;294396;-65
2022/07/30 06:08:06;;;;;;;19.17;7.40;;;15.80;99.90;;;;;;5067727;28;20045;-65
2022/07/30 06:10:33;;;;;;;17.58;6.95;;;15.90;99.90;;;;;;5025498;28;283253;-65
2022/07/30 06:12:59;;;;;;;16.42;8.32;;;16.00;99.90;;;;;;5066361;28;20508;-65
2022/07/30 06:15:26;;;;;;;16.83;9.23;;;16.10;99.90;;;;;;5053947;28;180524;-66
2022/07/30 06:17:52;;;;;;;31.45;8.80;;;16.20;99.90;;;;;;5019815;28;205416;-66
2022/07/30 06:20:19;;;;;;;19.25;9.10;;;16.20;99.90;;;;;;5043233;28;53278;-67
2022/07/30 06:22:45;;;;;;;15.30;8.85;;;16.20;99.90;;;;;;5026653;28;207209;-64
2022/07/30 06:25:12;;;;;;;16.10;8.98;;;16.30;99.90;;;;;;5057881;28;115186;-65
2022/07/30 06:27:38;;;;;;;12.05;8.05;;;16.40;99.90;;;;;;5004199;28;208430;-64
2022/07/30 06:30:09;;;;;;;14.38;9.10;;;16.60;99.90;;;;;;5038415;28;191592;-65
2022/07/30 06:32:35;;;;;;;13.63;8.65;;;16.80;99.90;;;;;;5017337;28;349438;-65
2022/07/30 06:35:01;;;;;;;13.93;9.00;;;17.00;99.90;;;;;;5026203;28;55353;-64
2022/07/30 06:37:27;;;;;;;16.75;9.55;;;17.10;99.90;;;;;;5039075;28;220825;-65
2022/07/30 06:39:54;;;;;;;13.50;8.45;;;17.30;99.90;;;;;;5055004;28;183117;-66
2022/07/30 06:42:20;;;;;;;26.00;9.43;;;17.40;99.90;;;;;;5026093;28;209665;-65
2022/07/30 06:44:46;;;;;;;15.57;8.98;;;17.50;99.90;;;;;;5052846;28;232552;-66
2022/07/30 06:47:12;;;;;;;37.10;10.23;;;17.60;99.90;;;;;;5028302;28;205945;-65
2022/07/30 06:49:39;;;;;;;22.55;10.27;;;17.70;99.90;;;;;;5044781;28;31110;-64
2022/07/30 06:52:05;;;;;;;18.38;10.40;;;17.70;99.90;;;;;;5039164;28;222476;-66
2022/07/30 06:54:32;;;;;;;20.27;10.85;;;17.80;99.90;;;;;;5045314;28;79178;-65
2022/07/30 06:56:58;;;;;;;15.80;9.95;;;17.90;99.90;;;;;;5039658;28;119148;-67
2022/07/30 06:59:26;;;;;;;20.70;10.65;;;18.00;99.90;;;;;;5066914;28;23292;-65
2022/07/30 07:01:53;;;;;;;20.48;11.35;;;18.10;99.90;;;;;;5026873;28;237022;-67
2022/07/30 07:04:19;;;;;;;14.57;9.60;;;18.30;99.90;;;;;;5046293;28;190893;-65
2022/07/30 07:06:45;;;;;;;15.68;9.50;;;18.60;99.90;;;;;;5033897;28;209072;-65
2022/07/30 07:09:11;;;;;;;15.35;8.70;;;18.90;99.90;;;;;;5046364;28;70749;-66
2022/07/30 07:11:38;;;;;;;15.43;9.10;;;19.30;99.90;;;;;;5008572;28;214047;-66
2022/07/30 07:14:04;;;;;;;17.55;9.00;;;19.50;99.90;;;;;;5041023;28;210856;-67
2022/07/30 07:16:30;;;;;;;16.38;8.57;;;19.80;99.90;;;;;;5030677;28;206159;-66
2022/07/30 07:18:56;;;;;;;15.48;7.32;;;20.00;99.90;;;;;;5043651;28;101921;-68
2022/07/30 07:21:23;;;;;;;14.00;7.35;;;20.30;99.90;;;;;;5035775;28;131027;-66
2022/07/30 07:23:49;;;;;;;18.08;7.43;;;20.50;99.90;;;;;;5040122;28;168866;-66
2022/07/30 07:26:16;;;;;;;15.32;7.70;;;20.50;99.90;;;;;;5044121;28;213992;-65
2022/07/30 07:28:42;;;;;;;14.50;6.97;;;20.50;99.90;;;;;;5063477;28;26223;-66
2022/07/30 07:31:09;;;;;;;13.85;7.32;;;20.60;99.90;;;;;;5012357;28;211323;-66
2022/07/30 07:33:37;;;;;;;15.52;6.68;;;20.60;99.90;;;;;;5038251;28;275926;-66
2022/07/30 07:36:03;;;;;;;14.32;6.63;;;20.70;99.90;;;;;;5039058;28;214511;-66
2022/07/30 07:38:29;;;;;;;15.82;7.05;;;20.70;99.90;;;;;;5037914;28;262798;-68
2022/07/30 07:40:55;;;;;;;14.73;7.10;;;20.80;99.90;;;;;;5026893;28;211288;-67
2022/07/30 07:43:23;;;;;;;15.82;6.93;;;20.80;99.90;;;;;;5050827;28;258679;-66
2022/07/30 07:45:50;;;;;;;16.20;7.13;;;20.70;99.90;;;;;;5008030;28;207968;-66
2022/07/30 07:48:18;;;;;;;12.35;6.60;;;20.70;99.90;;;;;;5049932;28;269607;-66
2022/07/30 07:50:44;;;;;;;13.32;6.32;;;20.70;99.90;;;;;;5009545;28;210323;-66
2022/07/30 07:53:11;;;;;;;14.02;7.07;;;20.80;99.90;;;;;;5068752;28;20497;-68
2022/07/30 07:55:38;;;;;;;16.08;6.45;;;20.70;99.90;;;;;;4991233;28;212183;-66
2022/07/30 07:58:04;;;;;;;14.95;5.88;;;20.70;99.90;;;;;;5051885;28;20063;-68
2022/07/30 08:00:30;;;;;;;18.55;5.72;;;21.00;99.90;;;;;;5039669;28;223024;-66
2022/07/30 08:02:56;;;;;;;13.77;5.32;;;21.40;99.90;;;;;;5068333;28;140758;-65
2022/07/30 08:05:23;;;;;;;15.75;5.60;;;21.40;99.90;;;;;;5029784;28;136701;-66
2022/07/30 08:07:49;;;;;;;13.57;5.60;;;21.60;99.90;;;;;;5025566;28;206459;-66
2022/07/30 08:10:15;;;;;;;13.98;4.88;;;21.80;99.90;;;;;;5038142;28;207996;-67
2022/07/30 08:12:41;;;;;;;15.38;5.40;;;22.00;99.90;;;;;;5015682;28;177515;-67
2022/07/30 08:15:09;;;;;;;13.25;5.15;;;21.80;99.90;;;;;;5065407;28;267629;-67
2022/07/30 08:17:45;;;;;;;14.70;5.18;;;21.60;99.90;;;;;;5008501;28;205664;-67
2022/07/30 08:20:13;;;;;;;12.30;4.32;;;21.60;99.90;;;;;;5044399;28;20059;-67
2022/07/30 08:22:40;;;;;;;12.32;4.78;;;21.70;99.90;;;;;;5010707;28;206519;-66
2022/07/30 08:25:07;;;;;;;14.57;4.90;;;21.70;99.90;;;;;;5074113;28;20612;-68
2022/07/30 08:27:33;;;;;;;12.00;4.15;;;22.00;99.90;;;;;;5007116;28;206654;-68
2022/07/30 08:30:07;;;;;;;13.32;3.90;;;22.20;99.90;;;;;;5036711;28;208404;-66
2022/07/30 08:32:34;;;;;;;14.68;4.35;;;22.30;99.90;;;;;;5011269;28;201696;-67
2022/07/30 08:35:01;;;;;;;12.18;3.90;;;22.30;99.90;;;;;;5055660;28;49336;-67
2022/07/30 08:37:27;;;;;;;13.15;3.78;;;22.20;99.90;;;;;;5023168;28;192822;-67
2022/07/30 08:39:54;;;;;;;11.43;3.40;;;22.40;99.90;;;;;;5040782;28;102575;-67
2022/07/30 08:42:21;;;;;;;13.93;3.75;;;23.00;99.90;;;;;;5009583;28;222075;-68
2022/07/30 08:44:48;;;;;;;11.65;3.40;;;23.00;99.90;;;;;;5056301;28;113347;-67
2022/07/30 08:47:18;;;;;;;10.30;3.60;;;23.00;99.90;;;;;;5012423;28;211875;-66
2022/07/30 08:49:46;;;;;;;11.35;3.70;;;23.30;99.90;;;;;;5021848;28;56898;-67
2022/07/30 08:52:13;;;;;;;10.70;3.70;;;23.60;99.90;;;;;;5024136;28;208141;-67
2022/07/30 08:54:39;;;;;;;10.90;3.63;;;24.00;99.90;;;;;;5037874;28;157212;-67
2022/07/30 08:57:06;;;;;;;10.27;3.13;;;24.30;99.90;;;;;;5002482;28;211595;-66
2022/07/30 08:59:32;;;;;;;10.30;2.85;;;24.50;99.90;;;;;;5036207;28;196476;-67
2022/07/30 09:01:58;;;;;;;9.52;3.00;;;24.50;99.50;;;;;;5029801;28;146770;-66
2022/07/30 09:04:25;;;;;;;12.05;3.40;;;24.70;99.10;;;;;;5025787;28;135414;-68
2022/07/30 09:06:51;;;;;;;15.30;3.65;;;25.00;98.80;;;;;;5006456;28;210130;-68
2022/07/30 09:09:17;;;;;;;10.18;3.00;;;24.90;97.50;;;;;;5035555;28;235755;-68
2022/07/30 09:11:43;;;;;;;12.48;3.00;;;24.70;97.50;;;;;;5009705;28;209066;-68
2022/07/30 09:14:11;;;;;;;11.20;3.20;;;24.80;96.30;;;;;;5053416;28;189175;-67
2022/07/30 09:16:39;;;;;;;10.30;2.80;;;24.80;97.20;;;;;;5005030;28;206400;-68
2022/07/30 09:19:13;;;;;;;10.05;2.88;;;25.00;96.20;;;;;;5035197;28;35238;-68
2022/07/30 09:21:39;;;;;;;11.30;3.00;;;25.40;96.30;;;;;;5003236;28;210656;-69
2022/07/30 09:24:09;;;;;;;14.13;3.05;;;25.70;96.70;;;;;;5034544;28;250037;-67
2022/07/30 09:26:57;;;;;;;13.43;2.95;;;26.20;94.50;;;;;;5021072;28;191664;-68
2022/07/30 09:29:28;;;;;;;12.80;3.00;;;26.00;94.20;;;;;;5034713;28;102923;-68
2022/07/30 09:31:58;;;;;;;10.82;2.80;;;25.60;94.90;;;;;;4993540;28;207001;-68
2022/07/30 09:34:29;;;;;;;11.70;2.63;;;25.40;94.50;;;;;;5037117;28;178247;-68
2022/07/30 09:36:57;;;;;;;11.35;3.00;;;25.50;95.20;;;;;;5011834;28;206488;-67
2022/07/30 09:39:34;;;;;;;10.40;3.05;;;25.90;94.70;;;;;;5034974;28;124545;-68
2022/07/30 09:42:02;;;;;;;8.88;2.60;;;26.30;93.20;;;;;;5006295;28;208992;-67
2022/07/30 09:44:29;;;;;;;13.38;2.72;;;26.10;94.10;;;;;;5057527;28;63416;-67
2022/07/30 09:46:56;;;;;;;11.73;2.55;;;26.20;93.90;;;;;;5008603;28;208003;-67
2022/07/30 09:49:25;;;;;;;10.32;2.58;;;26.40;93.70;;;;;;5053132;28;199530;-67
2022/07/30 09:51:52;;;;;;;9.75;2.35;;;26.60;92.70;;;;;;5031088;28;172362;-68
2022/07/30 09:54:19;;;;;;;14.68;2.70;;;26.90;93.20;;;;;;5036303;28;186801;-68
2022/07/30 09:56:45;;;;;;;10.88;2.55;;;27.40;93.10;;;;;;5012207;28;202565;-68
2022/07/30 09:59:31;;;;;;;14.43;2.60;;;27.70;91.00;;;;;;5051362;28;217660;-68
2022/07/30 10:01:57;;;;;;;11.68;2.75;;;27.90;90.50;;;;;;5008127;28;208889;-68
2022/07/30 10:04:28;;;;;;;9.70;2.50;;;28.10;90.10;;;;;;5039232;28;231595;-69
2022/07/30 10:06:57;;;;;;;11.02;2.47;;;28.10;89.30;;;;;;5018928;28;210095;-68
2022/07/30 10:09:30;;;;;;;8.45;2.15;;;28.30;88.00;;;;;;5039304;28;82102;-68
2022/07/30 10:11:58;;;;;;;9.15;2.22;;;28.40;84.70;;;;;;5021310;28;213165;-68
2022/07/30 10:14:28;;;;;;;10.00;2.42;;;28.80;83.40;;;;;;5060484;28;284842;-68
2022/07/30 10:16:55;;;;;;;;;;;28.70;82.60;;;;;;5026478;28;207004;-68
2022/07/30 10:19:21;;;;;;;9.13;2.08;;;28.60;80.00;;;;;;5035282;28;216941;-68
2022/07/30 10:21:49;;;;;;;7.68;2.10;;;28.60;84.40;;;;;;5005088;28;206425;-68
2022/07/30 10:24:19;;;;;;;10.95;2.35;;;29.00;82.60;;;;;;5052112;28;253746;-68
2022/07/30 10:26:46;;;;;;;9.60;2.45;;;28.90;77.90;;;;;;5013364;28;209207;-67
2022/07/30 10:29:16;;;;;;;7.97;2.03;;;28.60;79.90;;;;;;5057030;28;175263;-69
2022/07/30 10:31:45;;;;;;;;;;;28.50;76.80;;;;;;5008046;28;210541;-68
2022/07/30 10:34:13;;;;;;;10.13;2.00;;;28.00;74.70;;;;;;5040502;28;156577;-68
2022/07/30 10:36:46;;;;;;;8.85;2.25;;;27.60;79.20;;;;;;5003975;28;228480;-68
2022/07/30 10:39:17;;;;;;;10.27;2.22;;;28.10;77.20;;;;;;5040243;28;171104;-68
2022/07/30 10:42:01;;;;;;;10.75;2.53;;;28.50;78.30;;;;;;5033971;28;151229;-68
2022/07/30 10:44:57;;;;;;;8.32;1.77;;;28.70;76.40;;;;;;5062651;28;20141;-67
2022/07/30 10:47:25;;;;;;;10.95;2.45;;;28.70;76.60;;;;;;4965648;28;212450;-68
2022/07/30 10:50:05;;;;;;;9.63;2.10;;;28.60;76.20;;;;;;4983496;28;80208;-68
2022/07/30 10:52:59;;;;;;;9.93;2.50;;;28.90;75.70;;;;;;4950105;28;205518;-68
2022/07/30 10:55:32;;;;;;;9.52;2.28;;;29.10;72.30;;;;;;4977846;28;208874;-68
2022/07/30 10:58:12;;;;;;;10.38;2.30;;;28.90;74.60;;;;;;4958145;28;157751;-68
2022/07/30 11:00:50;;;;;;;11.63;2.42;;;28.60;73.00;;;;;;4967780;28;212118;-68
2022/07/30 11:03:24;;;;;;;12.80;2.75;;;27.90;73.30;;;;;;5012348;28;193430;-67
2022/07/30 11:06:10;;;;;;;10.48;2.30;;;27.70;75.30;;;;;;4957167;28;210654;-68
2022/07/30 11:08:40;;;;;;;9.20;2.15;;;27.00;75.60;;;;;;4997954;28;137745;-68
2022/07/30 11:11:21;;;;;;;8.68;2.10;;;26.70;75.60;;;;;;4967507;28;208916;-68
2022/07/30 11:13:53;;;;;;;10.20;2.58;;;26.50;76.20;;;;;;4989425;28;199487;-68
2022/07/30 11:16:40;;;;;;;10.07;2.25;;;26.90;77.50;;;;;;4967094;28;211091;-67
2022/07/30 11:19:06;;;;;;;8.05;2.15;;;27.40;74.20;;;;;;4993928;28;255090;-67
2022/07/30 11:21:33;;;;;;;11.02;2.30;;;27.70;75.10;;;;;;4971936;28;210989;-68
2022/07/30 11:24:00;;;;;;;9.27;2.30;;;27.90;73.60;;;;;;4989449;28;133232;-70
2022/07/30 11:26:38;;;;;;;11.23;2.20;;;28.30;72.20;;;;;;4999435;28;210679;-67
2022/07/30 11:29:05;;;;;;;9.15;1.80;;;28.70;73.30;;;;;;5056841;28;221786;-68
2022/07/30 11:31:34;;;;;;;10.60;2.10;;;28.80;70.90;;;;;;5026898;28;206850;-67
2022/07/30 11:34:29;;;;;;;9.40;2.10;;;29.20;70.80;;;;;;5038869;28;189788;-69
2022/07/30 11:37:06;;;;;;;6.65;1.83;;;29.80;68.70;;;;;;4958305;28;219374;-67
2022/07/30 11:39:54;;;;;;;7.78;2.13;;;29.90;68.20;;;;;;4995723;28;106748;-67
2022/07/30 11:42:34;;;;;;;10.60;2.20;;;30.20;67.20;;;;;;4966339;28;209449;-68
2022/07/30 11:45:15;;;;;;;8.65;1.95;;;30.30;64.40;;;;;;4998940;28;108436;-68
2022/07/30 11:47:43;;;;;;;8.25;1.90;;;30.40;63.80;;;;;;4946759;28;227070;-68
2022/07/30 11:50:24;;;;;;;8.70;1.73;;;30.20;64.20;;;;;;5012028;28;184126;-68
2022/07/30 11:52:57;;;;;;;7.32;1.70;;;30.10;63.30;;;;;;4968322;28;206517;-69
2022/07/30 11:55:41;;;;;;;8.80;2.00;;;28.90;64.20;;;;;;4993259;28;244595;-69
2022/07/30 11:58:09;;;;;;;8.88;1.95;;;28.80;65.70;;;;;;4957922;28;122670;-68
2022/07/30 12:00:41;;;;;;;7.65;1.88;;;28.90;65.10;;;;;;4943903;28;243023;-68
2022/07/30 12:03:10;;;;;;;8.25;1.70;;;29.00;64.30;;;;;;4994442;28;20053;-68
2022/07/30 12:05:36;;;;;;;7.55;1.73;;;28.70;64.20;;;;;;4945001;28;206323;-68
2022/07/30 12:08:04;;;;;;;7.70;1.95;;;28.70;64.30;;;;;;5019791;28;20064;-68
2022/07/30 12:10:34;;;;;;;9.90;2.00;;;28.60;64.70;;;;;;5009256;28;163874;-68
2022/07/30 12:13:12;;;;;;;8.57;1.80;;;28.50;65.60;;;;;;5019650;28;23170;-68
2022/07/30 12:15:46;;;;;;;9.15;1.92;;;29.00;63.60;;;;;;5007586;28;210049;-68
2022/07/30 12:18:21;;;;;;;8.30;1.90;;;29.50;63.80;;;;;;5053154;28;20513;-68
2022/07/30 12:20:53;;;;;;;8.00;1.90;;;29.00;64.00;;;;;;5016555;28;223263;-68
2022/07/30 12:23:19;;;;;;;9.88;1.90;;;28.90;62.10;;;;;;5057721;28;260511;-68
2022/07/30 12:25:46;;;;;;;7.65;1.58;;;29.00;63.20;;;;;;5009153;28;212259;-68
2022/07/30 12:28:28;;;;;;;8.07;1.90;;;29.50;63.30;;;;;;5068464;28;20056;-68
2022/07/30 12:30:56;;;;;;;9.88;2.00;;;29.70;61.30;;;;;;4995559;28;211988;-68
2022/07/30 12:33:23;;;;;;;7.87;1.80;;;30.00;61.80;;;;;;5034013;28;268428;-69
2022/07/30 12:35:54;;;;;;;9.77;1.90;;;29.90;59.20;;;;;;5005729;28;222820;-67
2022/07/30 12:38:22;;;;;;;9.65;2.03;;;29.80;59.20;;;;;;5079241;28;233058;-67
2022/07/30 12:41:00;;;;;;;6.20;1.60;;;29.40;58.80;;;;;;5016255;28;216416;-69